createdAt,value
2023-03-22T00:01:52.987Z,100174.80
2023-03-22T00:04:23.227Z,100176.40
2023-03-22T00:06:53.250Z,100177.00
2023-03-22T00:09:23.438Z,100169.80
2023-03-22T00:11:53.478Z,100167.40
2023-03-22T00:14:23.668Z,100165.60
2023-03-22T00:16:53.683Z,100156.80
2023-03-22T00:19:24.056Z,100155.80
2023-03-22T00:21:55.055Z,100153.00
2023-03-22T00:24:25.102Z,100150.20
2023-03-22T00:26:55.092Z,100142.80
2023-03-22T00:29:25.289Z,100139.60
2023-03-22T00:31:56.512Z,100135.80
2023-03-22T00:34:30.552Z,100135.80
2023-03-22T00:37:00.812Z,100136.00
2023-03-22T00:39:31.078Z,100138.00
2023-03-22T00:42:01.089Z,100132.60
2023-03-22T00:44:31.147Z,100135.20
2023-03-22T00:47:04.016Z,100133.40
2023-03-22T00:49:34.680Z,100125.60
2023-03-22T00:52:05.266Z,100128.60
2023-03-22T00:54:35.719Z,100123.80
2023-03-22T00:57:06.018Z,100122.00
2023-03-22T00:59:37.964Z,100118.00
2023-03-22T01:02:08.974Z,100108.40
2023-03-22T01:04:39.587Z,100109.00
2023-03-22T01:07:09.692Z,100102.80
2023-03-22T01:09:39.859Z,100100.80
2023-03-22T01:12:10.025Z,100094.60
2023-03-22T01:14:40.500Z,100093.20
2023-03-22T01:17:10.969Z,100094.20
2023-03-22T01:19:40.993Z,100090.80
2023-03-22T01:22:11.289Z,100096.40
2023-03-22T01:24:41.606Z,100099.20
2023-03-22T01:27:11.632Z,100093.80
2023-03-22T01:29:41.792Z,100092.20
2023-03-22T01:32:12.165Z,100085.00
2023-03-22T01:34:42.231Z,100082.00
2023-03-22T01:37:12.451Z,100076.40
2023-03-22T01:39:45.785Z,100076.00
2023-03-22T01:42:17.621Z,100067.20
2023-03-22T01:45:41.626Z,100071.00
2023-03-22T01:48:27.982Z,100065.40
2023-03-22T01:51:08.204Z,100066.80
2023-03-22T01:54:01.910Z,100068.60
2023-03-22T01:56:37.252Z,100067.60
2023-03-22T01:59:10.983Z,100062.40
2023-03-22T02:01:55.526Z,100061.00
2023-03-22T02:04:33.628Z,100061.60
2023-03-22T02:07:09.831Z,100059.20
2023-03-22T02:09:41.685Z,100055.60
2023-03-22T02:12:31.791Z,100058.20
2023-03-22T02:15:18.708Z,100057.40
2023-03-22T02:18:16.431Z,100056.60
2023-03-22T02:21:38.048Z,100055.00
2023-03-22T02:24:58.549Z,100060.00
2023-03-22T02:28:18.492Z,100057.80
2023-03-22T02:31:28.804Z,100058.60
2023-03-22T02:34:53.930Z,100050.80
2023-03-22T02:38:03.283Z,100050.20
2023-03-22T02:40:46.231Z,100047.20
2023-03-22T02:43:30.358Z,100046.20
2023-03-22T02:46:08.628Z,100046.40
2023-03-22T02:48:50.744Z,100043.00
2023-03-22T02:51:29.656Z,100044.80
2023-03-22T02:54:08.342Z,100038.20
2023-03-22T02:56:44.623Z,100035.60
2023-03-22T02:59:17.431Z,100039.80
2023-03-22T03:01:52.525Z,100034.60
2023-03-22T03:04:28.540Z,100038.20
2023-03-22T03:07:06.571Z,100035.20
2023-03-22T03:09:39.076Z,100031.60
2023-03-22T03:12:18.671Z,100036.20
2023-03-22T03:14:49.032Z,100036.80
2023-03-22T03:17:40.695Z,100039.40
2023-03-22T03:20:33.883Z,100041.00
2023-03-22T03:23:24.363Z,100037.00
2023-03-22T03:26:03.886Z,100041.60
2023-03-22T03:28:49.165Z,100052.60
2023-03-22T03:31:36.027Z,100059.20
2023-03-22T03:34:18.077Z,100060.00
2023-03-22T03:36:56.762Z,100067.40
2023-03-22T03:39:33.568Z,100066.40
2023-03-22T03:42:06.941Z,100063.60
2023-03-22T03:44:39.569Z,100069.60
2023-03-22T03:47:10.937Z,100067.40
2023-03-22T03:49:42.268Z,100070.20
2023-03-22T03:52:12.839Z,100080.60
2023-03-22T03:54:42.990Z,100082.20
2023-03-22T03:57:16.441Z,100082.40
2023-03-22T03:59:46.542Z,100080.80
2023-03-22T04:02:24.779Z,100080.40
2023-03-22T04:04:55.628Z,100077.80
2023-03-22T04:07:25.905Z,100080.00
2023-03-22T04:09:56.132Z,100085.40
2023-03-22T04:12:30.715Z,100084.60
2023-03-22T04:15:20.673Z,100082.00
2023-03-22T04:17:54.450Z,100082.00
2023-03-22T04:20:27.455Z,100079.00
2023-03-22T04:22:58.209Z,100080.40
2023-03-22T04:25:29.647Z,100080.00
2023-03-22T04:28:04.973Z,100083.00
2023-03-22T04:30:38.161Z,100076.00
2023-03-22T04:33:27.166Z,100071.40
2023-03-22T04:36:16.847Z,100070.20
2023-03-22T04:38:58.266Z,100062.40
2023-03-22T04:41:30.281Z,100063.40
2023-03-22T04:44:02.623Z,100065.00
2023-03-22T04:46:35.979Z,100065.20
2023-03-22T04:49:08.573Z,100058.40
2023-03-22T04:51:40.960Z,100065.00
2023-03-22T04:54:43.550Z,100054.20
2023-03-22T04:57:15.533Z,100043.40
2023-03-22T04:59:48.720Z,100045.60
2023-03-22T05:02:19.329Z,100043.60
2023-03-22T05:04:50.891Z,100039.00
2023-03-22T05:07:31.800Z,100038.40
2023-03-22T05:10:02.831Z,100038.40
2023-03-22T05:12:33.149Z,100038.40
2023-03-22T05:15:26.438Z,100041.40
2023-03-22T05:17:56.703Z,100037.60
2023-03-22T05:20:27.117Z,100039.60
2023-03-22T05:23:09.328Z,100046.80
2023-03-22T05:25:39.769Z,100048.40
2023-03-22T05:28:10.256Z,100045.40
2023-03-22T05:30:48.318Z,100039.00
2023-03-22T05:33:31.283Z,100039.20
2023-03-22T05:36:01.691Z,100045.80
2023-03-22T05:38:32.990Z,100046.00
2023-03-22T05:41:04.305Z,100051.80
2023-03-22T05:43:34.939Z,100051.00
2023-03-22T05:46:09.338Z,100055.40
2023-03-22T05:48:47.855Z,100051.20
2023-03-22T05:51:20.928Z,100048.20
2023-03-22T05:53:53.900Z,100048.60
2023-03-22T05:56:31.503Z,100047.00
2023-03-22T05:59:08.433Z,100045.20
2023-03-22T06:01:39.298Z,100045.60
2023-03-22T06:04:15.084Z,100051.60
2023-03-22T06:06:59.779Z,100052.60
2023-03-22T06:09:56.452Z,100044.00
2023-03-22T06:12:29.623Z,100043.60
2023-03-22T06:15:07.977Z,100043.20
2023-03-22T06:17:49.333Z,100040.00
2023-03-22T06:20:23.252Z,100037.40
2023-03-22T06:22:57.402Z,100042.00
2023-03-22T06:25:28.121Z,100048.00
2023-03-22T06:27:58.686Z,100047.20
2023-03-22T06:30:29.486Z,100036.80
2023-03-22T06:33:18.279Z,100042.60
2023-03-22T06:35:50.974Z,100044.40
2023-03-22T06:38:29.113Z,100040.40
2023-03-22T06:40:59.544Z,100037.20
2023-03-22T06:43:30.112Z,100030.00
2023-03-22T06:46:09.927Z,100031.60
2023-03-22T06:48:46.350Z,100036.60
2023-03-22T06:51:19.039Z,100045.40
2023-03-22T06:53:49.362Z,100047.00
2023-03-22T06:56:19.788Z,100045.60
2023-03-22T06:58:54.104Z,100046.80
2023-03-22T07:01:24.781Z,100053.40
2023-03-22T07:03:55.047Z,100048.20
2023-03-22T07:06:26.309Z,100043.80
2023-03-22T07:08:57.594Z,100044.80
2023-03-22T07:11:31.095Z,100043.60
2023-03-22T07:14:03.602Z,100042.40
2023-03-22T07:17:00.729Z,100034.00
2023-03-22T07:19:31.981Z,100038.40
2023-03-22T07:22:04.112Z,100039.20
2023-03-22T07:24:40.360Z,100037.80
2023-03-22T07:27:15.232Z,100037.40
2023-03-22T07:29:45.806Z,100025.80
2023-03-22T07:32:16.394Z,100023.20
2023-03-22T07:34:58.079Z,100023.20
2023-03-22T07:37:28.337Z,100019.80
2023-03-22T07:39:58.572Z,100019.20
2023-03-22T07:42:31.452Z,100018.60
2023-03-22T07:45:22.374Z,100017.60
2023-03-22T07:48:13.722Z,100020.60
2023-03-22T07:50:58.419Z,100016.20
2023-03-22T07:53:28.965Z,100014.60
2023-03-22T07:56:00.182Z,100008.60
2023-03-22T07:58:30.819Z,100008.40
2023-03-22T08:01:08.352Z,100007.40
2023-03-22T08:03:53.729Z,100003.40
2023-03-22T08:06:45.882Z,100004.80
2023-03-22T08:09:16.340Z,100000.40
2023-03-22T08:11:46.626Z,99999.60
2023-03-22T08:14:18.547Z,99996.60
2023-03-22T08:16:52.800Z,99995.40
2023-03-22T08:19:23.363Z,99991.60
2023-03-22T08:21:54.136Z,99992.80
2023-03-22T08:24:41.712Z,99988.40
2023-03-22T08:27:18.777Z,99985.60
2023-03-22T08:29:50.691Z,99988.80
2023-03-22T08:32:21.082Z,99987.00
2023-03-22T08:34:52.120Z,99990.60
2023-03-22T08:37:22.402Z,99986.80
2023-03-22T08:39:52.911Z,99986.00
2023-03-22T08:42:26.604Z,99980.60
2023-03-22T08:44:57.011Z,99984.00
2023-03-22T08:47:29.072Z,99979.80
2023-03-22T08:50:01.407Z,99975.00
2023-03-22T08:52:40.096Z,99973.40
2023-03-22T08:55:17.940Z,99975.60
2023-03-22T08:58:09.764Z,99975.80
2023-03-22T09:01:17.011Z,99974.40
2023-03-22T09:04:01.798Z,99980.00
2023-03-22T09:06:33.595Z,99977.40
2023-03-22T09:09:04.060Z,99974.40
2023-03-22T09:11:36.765Z,99969.80
2023-03-22T09:14:07.492Z,99969.00
2023-03-22T09:16:38.289Z,99965.40
2023-03-22T09:19:09.797Z,99963.60
2023-03-22T09:21:40.202Z,99955.00
2023-03-22T09:24:13.967Z,99946.20
2023-03-22T09:26:47.856Z,99947.80
2023-03-22T09:29:20.365Z,99942.60
2023-03-22T09:31:50.829Z,99936.40
2023-03-22T09:34:25.023Z,99935.80
2023-03-22T09:36:58.613Z,99933.20
2023-03-22T09:39:31.592Z,99929.80
2023-03-22T09:42:07.651Z,99934.00
2023-03-22T09:44:43.515Z,99934.40
2023-03-22T09:47:30.751Z,99929.80
2023-03-22T09:50:12.549Z,99930.20
2023-03-22T09:52:43.690Z,99925.60
2023-03-22T09:55:25.578Z,99929.00
2023-03-22T09:58:06.774Z,99924.20
2023-03-22T10:00:45.862Z,99922.80
2023-03-22T10:03:34.891Z,99919.20
2023-03-22T10:06:14.826Z,99918.20
2023-03-22T10:08:58.836Z,99909.20
2023-03-22T10:11:44.409Z,99910.00
2023-03-22T10:14:37.082Z,99906.00
2023-03-22T10:17:15.314Z,99910.80
2023-03-22T10:19:55.388Z,99911.40
2023-03-22T10:22:32.264Z,99908.00
2023-03-22T10:25:05.609Z,99915.60
2023-03-22T10:27:37.316Z,99912.40
2023-03-22T10:30:21.322Z,99905.80
2023-03-22T10:32:59.986Z,99905.40
2023-03-22T10:35:31.832Z,99911.20
2023-03-22T10:38:07.231Z,99906.20
2023-03-22T10:40:40.446Z,99907.60
2023-03-22T10:43:23.517Z,99905.40
2023-03-22T10:45:56.154Z,99910.00
2023-03-22T10:48:32.901Z,99910.80
2023-03-22T10:51:03.657Z,99905.60
2023-03-22T10:53:41.367Z,99906.60
2023-03-22T10:56:16.227Z,99903.20
2023-03-22T10:58:47.621Z,99899.60
2023-03-22T11:01:27.693Z,99900.20
2023-03-22T11:04:06.541Z,99897.60
2023-03-22T11:06:50.208Z,99898.20
2023-03-22T11:09:23.043Z,99892.00
2023-03-22T11:11:56.498Z,99894.00
2023-03-22T11:14:32.151Z,99888.40
2023-03-22T11:17:12.018Z,99884.60
2023-03-22T11:19:52.772Z,99881.40
2023-03-22T11:22:36.996Z,99875.80
2023-03-22T11:25:16.154Z,99868.60
2023-03-22T11:27:55.643Z,99867.20
2023-03-22T11:30:30.496Z,99857.00
2023-03-22T11:33:18.963Z,99849.60
2023-03-22T11:35:56.057Z,99849.80
2023-03-22T11:38:30.950Z,99846.60
2023-03-22T11:41:05.455Z,99840.60
2023-03-22T11:43:39.346Z,99841.40
2023-03-22T11:46:12.336Z,99837.40
2023-03-22T11:48:45.549Z,99831.80
2023-03-22T11:51:25.758Z,99827.40
2023-03-22T11:54:04.581Z,99829.60
2023-03-22T11:56:40.331Z,99828.60
2023-03-22T11:59:21.596Z,99823.80
2023-03-22T12:02:03.725Z,99821.40
2023-03-22T12:04:39.344Z,99816.60
2023-03-22T12:07:16.903Z,99812.40
2023-03-22T12:09:57.151Z,99806.20
2023-03-22T12:12:49.098Z,99810.80
2023-03-22T12:15:28.305Z,99804.80
2023-03-22T12:18:08.687Z,99800.60
2023-03-22T12:20:49.187Z,99797.20
2023-03-22T12:23:22.585Z,99800.00
2023-03-22T12:26:00.783Z,99802.20
2023-03-22T12:28:39.941Z,99798.80
2023-03-22T12:31:17.309Z,99799.80
2023-03-22T12:33:52.129Z,99791.80
2023-03-22T12:36:32.048Z,99789.00
2023-03-22T12:39:04.670Z,99786.20
2023-03-22T12:41:40.411Z,99785.40
2023-03-22T12:44:19.419Z,99784.80
2023-03-22T12:46:56.658Z,99788.40
2023-03-22T12:49:37.966Z,99784.20
2023-03-22T12:52:21.589Z,99784.60
2023-03-22T12:54:55.743Z,99782.40
2023-03-22T12:57:26.763Z,99780.60
2023-03-22T13:00:06.653Z,99771.00
2023-03-22T13:02:37.898Z,99770.00
2023-03-22T13:05:12.032Z,99769.80
2023-03-22T13:07:58.189Z,99765.60
2023-03-22T13:11:00.692Z,99759.20
2023-03-22T13:13:48.264Z,99757.40
2023-03-22T13:16:23.982Z,99754.80
2023-03-22T13:19:35.601Z,99754.80
2023-03-22T13:22:28.034Z,99753.80
2023-03-22T13:25:29.421Z,99754.00
2023-03-22T13:28:02.839Z,99750.80
2023-03-22T13:30:48.459Z,99747.40
2023-03-22T13:33:27.305Z,99747.00
2023-03-22T13:36:00.753Z,99743.00
2023-03-22T13:38:34.793Z,99740.20
2023-03-22T13:41:09.159Z,99741.20
2023-03-22T13:43:49.862Z,99742.00
2023-03-22T13:46:51.871Z,99739.20
2023-03-22T13:49:48.541Z,99738.60
2023-03-22T13:52:36.774Z,99742.00
2023-03-22T13:55:47.134Z,99741.20
2023-03-22T13:58:37.602Z,99736.80
2023-03-22T14:01:17.130Z,99740.00
2023-03-22T14:03:51.132Z,99737.60
2023-03-22T14:06:27.423Z,99732.80
2023-03-22T14:09:05.510Z,99728.20
2023-03-22T14:11:46.762Z,99724.80
2023-03-22T14:14:24.676Z,99715.00
2023-03-22T14:17:04.336Z,99718.40
2023-03-22T14:19:37.112Z,99716.40
